sensor_id;sensor_type;location;lat;lon;timestamp;P1;durP1;ratioP1;P2;durP2;ratioP2
4232;SDS011;2130;48.472;11.934;2023-02-15T00:00:31;25.83;;;3.90;;
4232;SDS011;2130;48.472;11.934;2023-02-15T00:03:01;26.50;;;3.50;;
4232;SDS011;2130;48.472;11.934;2023-02-15T00:05:30;24.13;;;3.00;;
4232;SDS011;2130;48.472;11.934;2023-02-15T00:07:59;24.17;;;2.77;;
4232;SDS011;2130;48.472;11.934;2023-02-15T00:10:28;25.87;;;3.40;;
4232;SDS011;2130;48.472;11.934;2023-02-15T00:13:08;29.73;;;3.30;;
4232;SDS011;2130;48.472;11.934;2023-02-15T00:15:37;29.23;;;3.57;;
4232;SDS011;2130;48.472;11.934;2023-02-15T00:18:05;24.37;;;3.00;;
4232;SDS011;2130;48.472;11.934;2023-02-15T00:20:34;23.70;;;2.80;;
4232;SDS011;2130;48.472;11.934;2023-02-15T00:23:03;26.13;;;3.17;;
4232;SDS011;2130;48.472;11.934;2023-02-15T00:25:32;24.17;;;2.80;;
4232;SDS011;2130;48.472;11.934;2023-02-15T00:28:01;25.43;;;2.47;;
4232;SDS011;2130;48.472;11.934;2023-02-15T00:30:35;27.20;;;3.57;;
4232;SDS011;2130;48.472;11.934;2023-02-15T00:33:05;24.60;;;3.37;;
4232;SDS011;2130;48.472;11.934;2023-02-15T00:35:33;23.40;;;2.40;;
4232;SDS011;2130;48.472;11.934;2023-02-15T00:38:07;26.80;;;2.67;;
4232;SDS011;2130;48.472;11.934;2023-02-15T00:40:36;27.90;;;3.27;;
4232;SDS011;2130;48.472;11.934;2023-02-15T00:43:06;24.67;;;2.63;;
4232;SDS011;2130;48.472;11.934;2023-02-15T00:45:39;29.20;;;3.17;;
4232;SDS011;2130;48.472;11.934;2023-02-15T00:48:11;25.67;;;3.27;;
4232;SDS011;2130;48.472;11.934;2023-02-15T00:50:51;25.37;;;2.70;;
4232;SDS011;2130;48.472;11.934;2023-02-15T00:53:21;23.10;;;2.53;;
4232;SDS011;2130;48.472;11.934;2023-02-15T00:55:52;28.10;;;4.17;;
4232;SDS011;2130;48.472;11.934;2023-02-15T00:58:22;33.33;;;4.07;;
4232;SDS011;2130;48.472;11.934;2023-02-15T01:00:53;24.77;;;2.67;;
4232;SDS011;2130;48.472;11.934;2023-02-15T01:03:23;26.63;;;3.80;;
4232;SDS011;2130;48.472;11.934;2023-02-15T01:05:52;24.37;;;2.50;;
4232;SDS011;2130;48.472;11.934;2023-02-15T01:08:21;26.83;;;3.27;;
4232;SDS011;2130;48.472;11.934;2023-02-15T01:10:50;25.07;;;2.90;;
4232;SDS011;2130;48.472;11.934;2023-02-15T01:13:19;25.67;;;3.10;;
4232;SDS011;2130;48.472;11.934;2023-02-15T01:15:53;25.67;;;3.07;;
4232;SDS011;2130;48.472;11.934;2023-02-15T01:18:23;25.63;;;3.43;;
4232;SDS011;2130;48.472;11.934;2023-02-15T01:20:52;26.10;;;2.90;;
4232;SDS011;2130;48.472;11.934;2023-02-15T01:23:22;25.73;;;3.30;;
4232;SDS011;2130;48.472;11.934;2023-02-15T01:25:53;24.57;;;2.60;;
4232;SDS011;2130;48.472;11.934;2023-02-15T01:28:23;24.70;;;3.20;;
4232;SDS011;2130;48.472;11.934;2023-02-15T01:30:54;25.70;;;3.60;;
4232;SDS011;2130;48.472;11.934;2023-02-15T01:33:23;24.47;;;2.37;;
4232;SDS011;2130;48.472;11.934;2023-02-15T01:35:55;27.30;;;2.80;;
4232;SDS011;2130;48.472;11.934;2023-02-15T01:38:25;25.90;;;3.20;;
4232;SDS011;2130;48.472;11.934;2023-02-15T01:40:54;26.90;;;3.27;;
4232;SDS011;2130;48.472;11.934;2023-02-15T01:43:45;26.07;;;2.47;;
4232;SDS011;2130;48.472;11.934;2023-02-15T01:46:19;24.50;;;2.93;;
4232;SDS011;2130;48.472;11.934;2023-02-15T01:48:52;27.57;;;3.10;;
4232;SDS011;2130;48.472;11.934;2023-02-15T01:51:24;28.40;;;3.97;;
4232;SDS011;2130;48.472;11.934;2023-02-15T01:53:57;27.13;;;2.67;;
4232;SDS011;2130;48.472;11.934;2023-02-15T01:59:22;24.83;;;2.87;;
4232;SDS011;2130;48.472;11.934;2023-02-15T02:01:53;24.70;;;2.43;;
4232;SDS011;2130;48.472;11.934;2023-02-15T02:04:24;24.50;;;3.17;;
4232;SDS011;2130;48.472;11.934;2023-02-15T02:06:58;26.00;;;3.50;;
4232;SDS011;2130;48.472;11.934;2023-02-15T02:09:27;25.60;;;3.10;;
4232;SDS011;2130;48.472;11.934;2023-02-15T02:11:57;24.50;;;2.73;;
4232;SDS011;2130;48.472;11.934;2023-02-15T02:14:26;24.33;;;3.40;;
4232;SDS011;2130;48.472;11.934;2023-02-15T02:17:01;24.63;;;3.00;;
4232;SDS011;2130;48.472;11.934;2023-02-15T02:25:58;25.67;;;2.97;;
4232;SDS011;2130;48.472;11.934;2023-02-15T02:28:54;25.30;;;2.70;;
4232;SDS011;2130;48.472;11.934;2023-02-15T02:31:45;27.93;;;4.23;;
4232;SDS011;2130;48.472;11.934;2023-02-15T02:34:25;25.00;;;2.87;;
4232;SDS011;2130;48.472;11.934;2023-02-15T02:36:58;25.27;;;2.90;;
4232;SDS011;2130;48.472;11.934;2023-02-15T02:39:32;32.03;;;3.20;;
4232;SDS011;2130;48.472;11.934;2023-02-15T02:42:06;25.63;;;2.97;;
4232;SDS011;2130;48.472;11.934;2023-02-15T02:44:40;25.70;;;2.90;;
4232;SDS011;2130;48.472;11.934;2023-02-15T02:47:12;23.83;;;2.53;;
4232;SDS011;2130;48.472;11.934;2023-02-15T02:49:46;24.10;;;2.37;;
4232;SDS011;2130;48.472;11.934;2023-02-15T02:52:34;23.77;;;2.13;;
4232;SDS011;2130;48.472;11.934;2023-02-15T02:55:10;25.20;;;2.70;;
4232;SDS011;2130;48.472;11.934;2023-02-15T02:57:42;25.00;;;2.40;;
4232;SDS011;2130;48.472;11.934;2023-02-15T03:00:16;25.43;;;3.23;;
4232;SDS011;2130;48.472;11.934;2023-02-15T03:02:46;23.97;;;2.53;;
4232;SDS011;2130;48.472;11.934;2023-02-15T03:05:18;25.77;;;3.20;;
4232;SDS011;2130;48.472;11.934;2023-02-15T03:07:50;27.70;;;3.60;;
4232;SDS011;2130;48.472;11.934;2023-02-15T03:10:20;25.73;;;3.37;;
4232;SDS011;2130;48.472;11.934;2023-02-15T03:12:51;27.60;;;4.47;;
4232;SDS011;2130;48.472;11.934;2023-02-15T03:15:21;24.07;;;2.80;;
4232;SDS011;2130;48.472;11.934;2023-02-15T03:17:54;26.17;;;3.20;;
4232;SDS011;2130;48.472;11.934;2023-02-15T03:20:28;25.43;;;2.87;;
4232;SDS011;2130;48.472;11.934;2023-02-15T03:23:01;25.30;;;3.00;;
4232;SDS011;2130;48.472;11.934;2023-02-15T03:25:32;24.80;;;2.47;;
4232;SDS011;2130;48.472;11.934;2023-02-15T03:28:03;25.20;;;2.50;;
4232;SDS011;2130;48.472;11.934;2023-02-15T03:30:34;23.77;;;2.50;;
4232;SDS011;2130;48.472;11.934;2023-02-15T03:33:04;28.13;;;2.33;;
4232;SDS011;2130;48.472;11.934;2023-02-15T03:35:36;26.53;;;3.10;;
4232;SDS011;2130;48.472;11.934;2023-02-15T03:38:08;26.20;;;2.93;;
4232;SDS011;2130;48.472;11.934;2023-02-15T03:40:42;25.87;;;2.73;;
4232;SDS011;2130;48.472;11.934;2023-02-15T03:43:45;26.37;;;3.30;;
4232;SDS011;2130;48.472;11.934;2023-02-15T03:46:19;25.10;;;2.77;;
4232;SDS011;2130;48.472;11.934;2023-02-15T03:48:50;25.70;;;3.07;;
4232;SDS011;2130;48.472;11.934;2023-02-15T03:51:25;27.30;;;3.80;;
4232;SDS011;2130;48.472;11.934;2023-02-15T03:54:06;26.60;;;2.90;;
4232;SDS011;2130;48.472;11.934;2023-02-15T03:56:37;26.37;;;3.20;;
4232;SDS011;2130;48.472;11.934;2023-02-15T03:59:07;24.70;;;3.20;;
4232;SDS011;2130;48.472;11.934;2023-02-15T04:01:56;26.27;;;2.93;;
4232;SDS011;2130;48.472;11.934;2023-02-15T04:04:31;25.27;;;2.63;;
4232;SDS011;2130;48.472;11.934;2023-02-15T04:07:05;25.60;;;3.43;;
4232;SDS011;2130;48.472;11.934;2023-02-15T04:09:35;26.80;;;2.87;;
4232;SDS011;2130;48.472;11.934;2023-02-15T04:12:21;24.63;;;2.57;;
4232;SDS011;2130;48.472;11.934;2023-02-15T04:14:50;24.50;;;2.93;;
4232;SDS011;2130;48.472;11.934;2023-02-15T04:17:37;27.10;;;3.77;;
4232;SDS011;2130;48.472;11.934;2023-02-15T04:20:07;26.30;;;2.90;;
4232;SDS011;2130;48.472;11.934;2023-02-15T04:22:56;25.43;;;2.80;;
4232;SDS011;2130;48.472;11.934;2023-02-15T04:25:43;26.43;;;2.97;;
4232;SDS011;2130;48.472;11.934;2023-02-15T04:28:12;25.20;;;2.80;;
4232;SDS011;2130;48.472;11.934;2023-02-15T04:30:43;24.97;;;2.67;;
4232;SDS011;2130;48.472;11.934;2023-02-15T04:33:12;24.47;;;2.93;;
4232;SDS011;2130;48.472;11.934;2023-02-15T04:35:42;24.70;;;3.17;;
4232;SDS011;2130;48.472;11.934;2023-02-15T04:38:13;26.03;;;3.40;;
4232;SDS011;2130;48.472;11.934;2023-02-15T04:40:42;25.83;;;3.07;;
4232;SDS011;2130;48.472;11.934;2023-02-15T04:43:11;25.87;;;3.03;;
4232;SDS011;2130;48.472;11.934;2023-02-15T04:45:41;29.57;;;3.90;;
4232;SDS011;2130;48.472;11.934;2023-02-15T04:48:10;25.57;;;2.47;;
4232;SDS011;2130;48.472;11.934;2023-02-15T04:50:39;27.70;;;3.37;;
4232;SDS011;2130;48.472;11.934;2023-02-15T04:53:08;25.90;;;3.13;;
4232;SDS011;2130;48.472;11.934;2023-02-15T04:55:39;25.33;;;3.03;;
4232;SDS011;2130;48.472;11.934;2023-02-15T05:03:12;26.90;;;3.07;;
4232;SDS011;2130;48.472;11.934;2023-02-15T05:05:42;31.30;;;3.60;;
4232;SDS011;2130;48.472;11.934;2023-02-15T05:08:11;25.93;;;2.53;;
4232;SDS011;2130;48.472;11.934;2023-02-15T05:10:41;25.13;;;2.57;;
4232;SDS011;2130;48.472;11.934;2023-02-15T05:13:10;26.73;;;2.77;;
4232;SDS011;2130;48.472;11.934;2023-02-15T05:15:39;34.40;;;4.97;;
4232;SDS011;2130;48.472;11.934;2023-02-15T05:18:11;26.23;;;3.60;;
4232;SDS011;2130;48.472;11.934;2023-02-15T05:20:40;24.20;;;2.50;;
4232;SDS011;2130;48.472;11.934;2023-02-15T05:23:10;27.40;;;2.93;;
4232;SDS011;2130;48.472;11.934;2023-02-15T05:25:39;25.10;;;3.30;;
4232;SDS011;2130;48.472;11.934;2023-02-15T05:28:28;25.80;;;3.00;;
4232;SDS011;2130;48.472;11.934;2023-02-15T05:31:00;29.20;;;3.07;;
4232;SDS011;2130;48.472;11.934;2023-02-15T05:33:33;29.13;;;4.43;;
4232;SDS011;2130;48.472;11.934;2023-02-15T05:36:09;25.30;;;3.13;;
4232;SDS011;2130;48.472;11.934;2023-02-15T05:38:39;25.83;;;2.97;;
4232;SDS011;2130;48.472;11.934;2023-02-15T05:41:09;26.03;;;2.97;;
4232;SDS011;2130;48.472;11.934;2023-02-15T05:43:40;27.17;;;3.03;;
4232;SDS011;2130;48.472;11.934;2023-02-15T05:46:10;25.60;;;2.70;;
4232;SDS011;2130;48.472;11.934;2023-02-15T05:48:40;26.40;;;3.30;;
4232;SDS011;2130;48.472;11.934;2023-02-15T05:51:16;25.60;;;2.80;;
4232;SDS011;2130;48.472;11.934;2023-02-15T05:53:45;27.80;;;2.93;;
4232;SDS011;2130;48.472;11.934;2023-02-15T05:56:14;27.30;;;2.90;;
4232;SDS011;2130;48.472;11.934;2023-02-15T05:58:47;25.20;;;3.07;;
4232;SDS011;2130;48.472;11.934;2023-02-15T06:01:17;24.13;;;2.40;;
4232;SDS011;2130;48.472;11.934;2023-02-15T06:03:49;24.50;;;2.70;;
4232;SDS011;2130;48.472;11.934;2023-02-15T06:06:28;24.80;;;2.60;;
4232;SDS011;2130;48.472;11.934;2023-02-15T06:08:57;26.17;;;2.60;;
4232;SDS011;2130;48.472;11.934;2023-02-15T06:11:29;33.20;;;4.00;;
4232;SDS011;2130;48.472;11.934;2023-02-15T06:14:00;26.50;;;2.80;;
4232;SDS011;2130;48.472;11.934;2023-02-15T06:16:28;24.50;;;2.63;;
4232;SDS011;2130;48.472;11.934;2023-02-15T06:18:58;34.43;;;3.30;;
4232;SDS011;2130;48.472;11.934;2023-02-15T06:21:28;27.87;;;2.83;;
4232;SDS011;2130;48.472;11.934;2023-02-15T06:23:58;26.60;;;3.47;;
4232;SDS011;2130;48.472;11.934;2023-02-15T06:26:30;26.00;;;3.30;;
4232;SDS011;2130;48.472;11.934;2023-02-15T06:29:00;26.37;;;3.07;;
4232;SDS011;2130;48.472;11.934;2023-02-15T06:31:32;27.03;;;3.27;;
4232;SDS011;2130;48.472;11.934;2023-02-15T06:34:02;26.70;;;3.63;;
4232;SDS011;2130;48.472;11.934;2023-02-15T06:36:31;25.63;;;3.03;;
4232;SDS011;2130;48.472;11.934;2023-02-15T06:39:00;28.70;;;4.10;;
4232;SDS011;2130;48.472;11.934;2023-02-15T06:41:30;25.87;;;3.20;;
4232;SDS011;2130;48.472;11.934;2023-02-15T06:44:01;26.97;;;3.13;;
4232;SDS011;2130;48.472;11.934;2023-02-15T06:46:30;25.30;;;2.80;;
4232;SDS011;2130;48.472;11.934;2023-02-15T06:48:59;27.07;;;3.07;;
4232;SDS011;2130;48.472;11.934;2023-02-15T06:51:32;27.00;;;3.00;;
4232;SDS011;2130;48.472;11.934;2023-02-15T06:54:01;24.83;;;2.43;;
4232;SDS011;2130;48.472;11.934;2023-02-15T06:56:31;26.00;;;3.67;;
4232;SDS011;2130;48.472;11.934;2023-02-15T06:59:01;25.17;;;3.07;;
4232;SDS011;2130;48.472;11.934;2023-02-15T07:01:31;25.93;;;3.03;;
4232;SDS011;2130;48.472;11.934;2023-02-15T07:04:04;25.30;;;3.00;;
4232;SDS011;2130;48.472;11.934;2023-02-15T07:06:34;26.53;;;3.00;;
4232;SDS011;2130;48.472;11.934;2023-02-15T07:09:03;28.07;;;3.90;;
4232;SDS011;2130;48.472;11.934;2023-02-15T07:11:35;27.10;;;3.50;;
4232;SDS011;2130;48.472;11.934;2023-02-15T07:14:23;26.70;;;3.23;;
4232;SDS011;2130;48.472;11.934;2023-02-15T07:16:54;27.17;;;2.83;;
4232;SDS011;2130;48.472;11.934;2023-02-15T07:19:23;25.30;;;2.70;;
4232;SDS011;2130;48.472;11.934;2023-02-15T07:21:52;25.03;;;2.67;;
4232;SDS011;2130;48.472;11.934;2023-02-15T07:24:22;25.00;;;2.53;;
4232;SDS011;2130;48.472;11.934;2023-02-15T07:26:50;24.97;;;2.77;;
4232;SDS011;2130;48.472;11.934;2023-02-15T07:29:19;24.83;;;2.83;;
4232;SDS011;2130;48.472;11.934;2023-02-15T07:31:50;25.00;;;2.53;;
4232;SDS011;2130;48.472;11.934;2023-02-15T07:34:19;25.20;;;2.80;;
4232;SDS011;2130;48.472;11.934;2023-02-15T07:36:50;26.90;;;3.10;;
4232;SDS011;2130;48.472;11.934;2023-02-15T07:39:20;24.83;;;2.50;;
4232;SDS011;2130;48.472;11.934;2023-02-15T07:44:45;25.97;;;3.37;;
4232;SDS011;2130;48.472;11.934;2023-02-15T07:47:16;25.73;;;2.90;;
4232;SDS011;2130;48.472;11.934;2023-02-15T07:49:45;25.70;;;2.70;;
4232;SDS011;2130;48.472;11.934;2023-02-15T07:52:16;24.63;;;2.47;;
4232;SDS011;2130;48.472;11.934;2023-02-15T07:54:45;25.40;;;2.73;;
4232;SDS011;2130;48.472;11.934;2023-02-15T07:57:13;28.10;;;3.33;;
4232;SDS011;2130;48.472;11.934;2023-02-15T07:59:42;25.13;;;2.80;;
4232;SDS011;2130;48.472;11.934;2023-02-15T08:02:11;24.90;;;2.70;;
4232;SDS011;2130;48.472;11.934;2023-02-15T08:04:45;26.60;;;3.23;;
4232;SDS011;2130;48.472;11.934;2023-02-15T08:07:14;27.77;;;3.73;;
4232;SDS011;2130;48.472;11.934;2023-02-15T08:09:44;28.27;;;3.07;;
4232;SDS011;2130;48.472;11.934;2023-02-15T08:12:13;29.73;;;4.20;;
4232;SDS011;2130;48.472;11.934;2023-02-15T08:14:42;24.60;;;2.83;;
4232;SDS011;2130;48.472;11.934;2023-02-15T08:17:10;24.47;;;2.70;;
4232;SDS011;2130;48.472;11.934;2023-02-15T08:19:39;25.43;;;2.80;;
4232;SDS011;2130;48.472;11.934;2023-02-15T08:22:12;25.80;;;3.23;;
4232;SDS011;2130;48.472;11.934;2023-02-15T08:24:41;26.77;;;3.77;;
4232;SDS011;2130;48.472;11.934;2023-02-15T08:27:13;28.47;;;2.93;;
4232;SDS011;2130;48.472;11.934;2023-02-15T08:29:56;25.33;;;3.20;;
4232;SDS011;2130;48.472;11.934;2023-02-15T08:32:25;28.40;;;3.67;;
4232;SDS011;2130;48.472;11.934;2023-02-15T08:34:54;25.60;;;3.10;;
4232;SDS011;2130;48.472;11.934;2023-02-15T08:37:24;26.20;;;3.00;;
4232;SDS011;2130;48.472;11.934;2023-02-15T08:39:53;25.03;;;3.13;;
4232;SDS011;2130;48.472;11.934;2023-02-15T08:42:22;24.50;;;2.40;;
4232;SDS011;2130;48.472;11.934;2023-02-15T08:44:51;24.47;;;2.67;;
4232;SDS011;2130;48.472;11.934;2023-02-15T08:47:19;26.23;;;3.00;;
4232;SDS011;2130;48.472;11.934;2023-02-15T08:49:48;29.50;;;4.20;;
4232;SDS011;2130;48.472;11.934;2023-02-15T08:52:17;24.93;;;2.97;;
4232;SDS011;2130;48.472;11.934;2023-02-15T08:57:42;27.70;;;2.70;;
4232;SDS011;2130;48.472;11.934;2023-02-15T09:00:12;27.67;;;3.30;;
4232;SDS011;2130;48.472;11.934;2023-02-15T09:02:42;25.50;;;2.87;;
4232;SDS011;2130;48.472;11.934;2023-02-15T09:05:10;25.13;;;2.83;;
4232;SDS011;2130;48.472;11.934;2023-02-15T09:07:39;25.10;;;3.00;;
4232;SDS011;2130;48.472;11.934;2023-02-15T09:10:08;26.50;;;3.87;;
4232;SDS011;2130;48.472;11.934;2023-02-15T09:12:39;26.20;;;2.77;;
4232;SDS011;2130;48.472;11.934;2023-02-15T09:15:08;25.97;;;3.30;;
4232;SDS011;2130;48.472;11.934;2023-02-15T09:17:36;25.50;;;2.70;;
4232;SDS011;2130;48.472;11.934;2023-02-15T09:20:05;24.27;;;2.77;;
4232;SDS011;2130;48.472;11.934;2023-02-15T09:22:34;28.53;;;3.60;;
4232;SDS011;2130;48.472;11.934;2023-02-15T09:25:03;24.87;;;3.30;;
4232;SDS011;2130;48.472;11.934;2023-02-15T09:27:33;25.83;;;3.47;;
4232;SDS011;2130;48.472;11.934;2023-02-15T09:30:06;25.60;;;3.50;;
4232;SDS011;2130;48.472;11.934;2023-02-15T09:32:35;23.60;;;2.47;;
4232;SDS011;2130;48.472;11.934;2023-02-15T09:35:04;25.70;;;3.23;;
4232;SDS011;2130;48.472;11.934;2023-02-15T09:37:33;25.90;;;3.13;;
4232;SDS011;2130;48.472;11.934;2023-02-15T09:40:02;25.20;;;3.10;;
4232;SDS011;2130;48.472;11.934;2023-02-15T09:42:44;26.53;;;3.93;;
4232;SDS011;2130;48.472;11.934;2023-02-15T09:45:25;25.67;;;3.10;;
4232;SDS011;2130;48.472;11.934;2023-02-15T09:50:53;35.23;;;4.53;;
4232;SDS011;2130;48.472;11.934;2023-02-15T09:53:35;26.97;;;3.70;;
4232;SDS011;2130;48.472;11.934;2023-02-15T09:56:13;25.67;;;3.10;;
4232;SDS011;2130;48.472;11.934;2023-02-15T09:58:48;26.97;;;3.60;;
4232;SDS011;2130;48.472;11.934;2023-02-15T10:01:24;25.93;;;3.30;;
4232;SDS011;2130;48.472;11.934;2023-02-15T10:04:02;24.07;;;3.37;;
4232;SDS011;2130;48.472;11.934;2023-02-15T10:06:41;26.07;;;3.43;;
4232;SDS011;2130;48.472;11.934;2023-02-15T10:09:19;29.70;;;2.90;;
4232;SDS011;2130;48.472;11.934;2023-02-15T10:14:47;26.83;;;3.83;;
4232;SDS011;2130;48.472;11.934;2023-02-15T10:17:29;26.20;;;3.50;;
4232;SDS011;2130;48.472;11.934;2023-02-15T10:20:08;27.23;;;3.30;;
4232;SDS011;2130;48.472;11.934;2023-02-15T10:22:50;24.63;;;2.80;;
4232;SDS011;2130;48.472;11.934;2023-02-15T10:25:32;25.03;;;2.73;;
4232;SDS011;2130;48.472;11.934;2023-02-15T10:28:09;25.73;;;3.30;;
4232;SDS011;2130;48.472;11.934;2023-02-15T10:30:43;26.77;;;3.23;;
4232;SDS011;2130;48.472;11.934;2023-02-15T10:33:24;25.50;;;3.07;;
4232;SDS011;2130;48.472;11.934;2023-02-15T10:36:05;27.80;;;2.70;;
4232;SDS011;2130;48.472;11.934;2023-02-15T10:38:40;28.40;;;3.50;;
4232;SDS011;2130;48.472;11.934;2023-02-15T10:41:17;26.13;;;2.90;;
4232;SDS011;2130;48.472;11.934;2023-02-15T10:44:00;28.73;;;3.97;;
4232;SDS011;2130;48.472;11.934;2023-02-15T10:46:48;24.30;;;2.70;;
4232;SDS011;2130;48.472;11.934;2023-02-15T10:49:29;28.40;;;3.17;;
4232;SDS011;2130;48.472;11.934;2023-02-15T10:52:12;32.80;;;5.13;;
4232;SDS011;2130;48.472;11.934;2023-02-15T10:54:46;27.50;;;3.30;;
4232;SDS011;2130;48.472;11.934;2023-02-15T10:57:19;27.20;;;3.17;;
4232;SDS011;2130;48.472;11.934;2023-02-15T11:00:03;25.63;;;3.13;;
4232;SDS011;2130;48.472;11.934;2023-02-15T11:02:41;25.00;;;3.07;;
4232;SDS011;2130;48.472;11.934;2023-02-15T11:05:27;23.43;;;1.90;;
4232;SDS011;2130;48.472;11.934;2023-02-15T11:08:06;24.30;;;3.03;;
4232;SDS011;2130;48.472;11.934;2023-02-15T11:10:37;25.60;;;3.33;;
4232;SDS011;2130;48.472;11.934;2023-02-15T11:13:08;25.40;;;3.30;;
4232;SDS011;2130;48.472;11.934;2023-02-15T11:15:39;25.20;;;3.57;;
4232;SDS011;2130;48.472;11.934;2023-02-15T11:18:11;25.60;;;3.70;;
4232;SDS011;2130;48.472;11.934;2023-02-15T11:20:44;26.47;;;3.80;;
4232;SDS011;2130;48.472;11.934;2023-02-15T11:23:16;25.23;;;3.60;;
4232;SDS011;2130;48.472;11.934;2023-02-15T11:25:45;25.10;;;3.70;;
4232;SDS011;2130;48.472;11.934;2023-02-15T11:28:17;25.30;;;3.57;;
4232;SDS011;2130;48.472;11.934;2023-02-15T11:30:49;26.90;;;4.13;;
4232;SDS011;2130;48.472;11.934;2023-02-15T11:33:21;27.43;;;3.87;;
4232;SDS011;2130;48.472;11.934;2023-02-15T11:35:55;27.90;;;4.17;;
4232;SDS011;2130;48.472;11.934;2023-02-15T11:38:27;26.73;;;3.33;;
4232;SDS011;2130;48.472;11.934;2023-02-15T11:40:59;25.43;;;3.57;;
4232;SDS011;2130;48.472;11.934;2023-02-15T11:43:31;24.03;;;3.00;;
4232;SDS011;2130;48.472;11.934;2023-02-15T11:46:02;26.00;;;3.30;;
4232;SDS011;2130;48.472;11.934;2023-02-15T11:48:31;26.17;;;3.90;;
4232;SDS011;2130;48.472;11.934;2023-02-15T11:51:02;24.70;;;3.20;;
4232;SDS011;2130;48.472;11.934;2023-02-15T11:53:32;26.13;;;3.63;;
4232;SDS011;2130;48.472;11.934;2023-02-15T11:56:02;25.33;;;3.93;;
4232;SDS011;2130;48.472;11.934;2023-02-15T11:58:33;26.17;;;4.20;;
4232;SDS011;2130;48.472;11.934;2023-02-15T12:01:09;31.07;;;3.53;;
4232;SDS011;2130;48.472;11.934;2023-02-15T12:03:43;24.90;;;3.47;;
4232;SDS011;2130;48.472;11.934;2023-02-15T12:06:16;27.53;;;4.57;;
4232;SDS011;2130;48.472;11.934;2023-02-15T12:08:50;25.93;;;3.60;;
4232;SDS011;2130;48.472;11.934;2023-02-15T12:11:25;25.97;;;3.70;;
4232;SDS011;2130;48.472;11.934;2023-02-15T12:13:58;24.90;;;3.70;;
4232;SDS011;2130;48.472;11.934;2023-02-15T12:16:27;26.40;;;4.17;;
4232;SDS011;2130;48.472;11.934;2023-02-15T12:18:58;24.60;;;4.40;;
4232;SDS011;2130;48.472;11.934;2023-02-15T12:21:30;25.50;;;4.53;;
4232;SDS011;2130;48.472;11.934;2023-02-15T12:24:01;30.73;;;4.77;;
4232;SDS011;2130;48.472;11.934;2023-02-15T12:26:32;27.93;;;4.00;;
4232;SDS011;2130;48.472;11.934;2023-02-15T12:29:06;24.17;;;3.87;;
4232;SDS011;2130;48.472;11.934;2023-02-15T12:31:40;24.80;;;3.60;;
4232;SDS011;2130;48.472;11.934;2023-02-15T12:34:12;26.43;;;4.30;;
4232;SDS011;2130;48.472;11.934;2023-02-15T12:36:47;25.50;;;4.60;;
4232;SDS011;2130;48.472;11.934;2023-02-15T12:39:18;24.67;;;3.97;;
4232;SDS011;2130;48.472;11.934;2023-02-15T12:41:59;29.23;;;5.60;;
4232;SDS011;2130;48.472;11.934;2023-02-15T12:44:31;24.00;;;3.80;;
4232;SDS011;2130;48.472;11.934;2023-02-15T12:47:01;28.20;;;5.80;;
4232;SDS011;2130;48.472;11.934;2023-02-15T12:49:31;24.07;;;4.03;;
4232;SDS011;2130;48.472;11.934;2023-02-15T12:52:03;24.47;;;4.50;;
4232;SDS011;2130;48.472;11.934;2023-02-15T12:54:35;24.43;;;4.17;;
4232;SDS011;2130;48.472;11.934;2023-02-15T12:57:23;21.83;;;3.43;;
4232;SDS011;2130;48.472;11.934;2023-02-15T12:59:55;24.63;;;4.63;;
4232;SDS011;2130;48.472;11.934;2023-02-15T13:02:26;24.43;;;4.03;;
4232;SDS011;2130;48.472;11.934;2023-02-15T13:04:56;25.67;;;4.87;;
4232;SDS011;2130;48.472;11.934;2023-02-15T13:07:30;24.83;;;4.93;;
4232;SDS011;2130;48.472;11.934;2023-02-15T13:09:59;28.33;;;4.40;;
4232;SDS011;2130;48.472;11.934;2023-02-15T13:12:28;20.70;;;4.47;;
4232;SDS011;2130;48.472;11.934;2023-02-15T13:14:58;21.70;;;3.20;;
4232;SDS011;2130;48.472;11.934;2023-02-15T13:17:29;23.53;;;4.67;;
4232;SDS011;2130;48.472;11.934;2023-02-15T13:20:02;24.00;;;4.60;;
4232;SDS011;2130;48.472;11.934;2023-02-15T13:22:37;23.03;;;4.57;;
4232;SDS011;2130;48.472;11.934;2023-02-15T13:25:13;22.90;;;5.13;;
4232;SDS011;2130;48.472;11.934;2023-02-15T13:27:45;24.80;;;4.97;;
4232;SDS011;2130;48.472;11.934;2023-02-15T13:30:22;21.70;;;4.47;;
4232;SDS011;2130;48.472;11.934;2023-02-15T13:35:50;26.60;;;5.70;;
4232;SDS011;2130;48.472;11.934;2023-02-15T13:38:45;26.37;;;5.07;;
4232;SDS011;2130;48.472;11.934;2023-02-15T13:41:17;23.53;;;5.70;;
4232;SDS011;2130;48.472;11.934;2023-02-15T13:43:50;23.90;;;4.40;;
4232;SDS011;2130;48.472;11.934;2023-02-15T13:46:29;26.93;;;5.37;;
4232;SDS011;2130;48.472;11.934;2023-02-15T13:49:13;25.03;;;4.83;;
4232;SDS011;2130;48.472;11.934;2023-02-15T13:51:48;23.43;;;5.23;;
4232;SDS011;2130;48.472;11.934;2023-02-15T13:54:26;21.40;;;3.87;;
4232;SDS011;2130;48.472;11.934;2023-02-15T13:57:03;21.47;;;4.70;;
4232;SDS011;2130;48.472;11.934;2023-02-15T13:59:46;23.07;;;4.30;;
4232;SDS011;2130;48.472;11.934;2023-02-15T14:02:37;25.20;;;5.20;;
4232;SDS011;2130;48.472;11.934;2023-02-15T14:05:14;22.00;;;5.00;;
4232;SDS011;2130;48.472;11.934;2023-02-15T14:07:55;23.37;;;5.43;;
4232;SDS011;2130;48.472;11.934;2023-02-15T14:10:35;24.20;;;4.67;;
4232;SDS011;2130;48.472;11.934;2023-02-15T14:13:24;22.03;;;4.70;;
4232;SDS011;2130;48.472;11.934;2023-02-15T14:16:02;24.40;;;5.00;;
4232;SDS011;2130;48.472;11.934;2023-02-15T14:18:33;23.30;;;5.17;;
4232;SDS011;2130;48.472;11.934;2023-02-15T14:21:09;23.63;;;4.90;;
4232;SDS011;2130;48.472;11.934;2023-02-15T14:23:42;26.77;;;4.90;;
4232;SDS011;2130;48.472;11.934;2023-02-15T14:26:18;19.80;;;3.80;;
4232;SDS011;2130;48.472;11.934;2023-02-15T14:28:51;24.17;;;5.17;;
4232;SDS011;2130;48.472;11.934;2023-02-15T14:31:25;22.17;;;4.90;;
4232;SDS011;2130;48.472;11.934;2023-02-15T14:33:57;22.80;;;5.50;;
4232;SDS011;2130;48.472;11.934;2023-02-15T14:36:26;25.83;;;5.77;;
4232;SDS011;2130;48.472;11.934;2023-02-15T14:38:59;23.13;;;5.10;;
4232;SDS011;2130;48.472;11.934;2023-02-15T14:41:57;24.50;;;4.93;;
4232;SDS011;2130;48.472;11.934;2023-02-15T14:44:27;24.70;;;5.27;;
4232;SDS011;2130;48.472;11.934;2023-02-15T14:47:00;21.20;;;4.70;;
4232;SDS011;2130;48.472;11.934;2023-02-15T14:49:33;18.53;;;3.70;;
4232;SDS011;2130;48.472;11.934;2023-02-15T14:52:04;22.23;;;4.97;;
4232;SDS011;2130;48.472;11.934;2023-02-15T14:57:28;23.20;;;4.93;;
4232;SDS011;2130;48.472;11.934;2023-02-15T15:05:50;23.43;;;4.50;;
4232;SDS011;2130;48.472;11.934;2023-02-15T15:08:21;22.00;;;4.63;;
4232;SDS011;2130;48.472;11.934;2023-02-15T15:10:54;20.70;;;4.27;;
4232;SDS011;2130;48.472;11.934;2023-02-15T15:16:24;23.73;;;5.10;;
4232;SDS011;2130;48.472;11.934;2023-02-15T15:19:01;26.07;;;5.20;;
4232;SDS011;2130;48.472;11.934;2023-02-15T15:36:58;22.80;;;3.80;;
4232;SDS011;2130;48.472;11.934;2023-02-15T15:42:50;25.00;;;4.80;;
4232;SDS011;2130;48.472;11.934;2023-02-15T15:48:29;24.10;;;5.40;;
4232;SDS011;2130;48.472;11.934;2023-02-15T15:51:02;24.03;;;5.33;;
4232;SDS011;2130;48.472;11.934;2023-02-15T15:53:37;24.53;;;4.97;;
4232;SDS011;2130;48.472;11.934;2023-02-15T15:56:11;23.83;;;5.47;;
4232;SDS011;2130;48.472;11.934;2023-02-15T15:58:42;22.03;;;4.83;;
4232;SDS011;2130;48.472;11.934;2023-02-15T16:01:12;21.00;;;4.43;;
4232;SDS011;2130;48.472;11.934;2023-02-15T16:03:51;22.53;;;5.20;;
4232;SDS011;2130;48.472;11.934;2023-02-15T16:06:32;26.37;;;4.93;;
4232;SDS011;2130;48.472;11.934;2023-02-15T16:09:12;26.53;;;4.93;;
4232;SDS011;2130;48.472;11.934;2023-02-15T16:11:46;21.70;;;4.70;;
4232;SDS011;2130;48.472;11.934;2023-02-15T16:14:16;23.23;;;4.30;;
4232;SDS011;2130;48.472;11.934;2023-02-15T16:16:51;24.37;;;4.20;;
4232;SDS011;2130;48.472;11.934;2023-02-15T16:19:23;23.83;;;4.53;;
4232;SDS011;2130;48.472;11.934;2023-02-15T16:21:57;21.50;;;4.30;;
4232;SDS011;2130;48.472;11.934;2023-02-15T16:24:33;24.17;;;4.50;;